sensor_id;sensor_type;location;lat;lon;timestamp;pressure;altitude;pressure_sealevel;temperature;humidity
54806;BME280;62866;55.776;37.496;2023-01-31T00:01:21;97853.03;;;-1.13;90.00
54806;BME280;62866;55.776;37.496;2023-01-31T00:03:51;97849.59;;;-1.14;89.72
54806;BME280;62866;55.776;37.496;2023-01-31T00:06:36;97856.47;;;-1.13;89.85
54806;BME280;62866;55.776;37.496;2023-01-31T00:09:04;97850.25;;;-1.12;89.91
54806;BME280;62866;55.776;37.496;2023-01-31T00:11:30;97850.25;;;-1.12;89.93
54806;BME280;62866;55.776;37.496;2023-01-31T00:13:57;97853.69;;;-1.11;89.84
54806;BME280;62866;55.776;37.496;2023-01-31T00:16:23;97845.66;;;-1.18;89.92
54806;BME280;62866;55.776;37.496;2023-01-31T00:18:49;97857.63;;;-1.16;89.55
54806;BME280;62866;55.776;37.496;2023-01-31T00:21:18;97855.50;;;-1.12;90.12
54806;BME280;62866;55.776;37.496;2023-01-31T00:23:45;97858.59;;;-1.08;89.54
54806;BME280;62866;55.776;37.496;2023-01-31T00:26:19;97862.25;;;-1.09;90.27
54806;BME280;62866;55.776;37.496;2023-01-31T00:28:47;97861.41;;;-1.10;89.49
54806;BME280;62866;55.776;37.496;2023-01-31T00:31:14;97846.66;;;-1.19;89.53
54806;BME280;62866;55.776;37.496;2023-01-31T00:33:42;97849.91;;;-1.25;89.71
54806;BME280;62866;55.776;37.496;2023-01-31T00:36:11;97848.28;;;-1.18;89.73
54806;BME280;62866;55.776;37.496;2023-01-31T00:38:37;97853.69;;;-1.11;89.60
54806;BME280;62866;55.776;37.496;2023-01-31T00:41:03;97862.03;;;-1.16;89.48
54806;BME280;62866;55.776;37.496;2023-01-31T00:43:30;97866.47;;;-1.17;89.27
54806;BME280;62866;55.776;37.496;2023-01-31T00:45:56;97871.41;;;-1.13;89.75
54806;BME280;62866;55.776;37.496;2023-01-31T00:48:22;97876.16;;;-1.09;89.39
54806;BME280;62866;55.776;37.496;2023-01-31T00:50:48;97874.69;;;-1.11;89.10
54806;BME280;62866;55.776;37.496;2023-01-31T00:53:14;97864.84;;;-1.09;89.16
54806;BME280;62866;55.776;37.496;2023-01-31T00:55:41;97872.22;;;-1.13;88.64
54806;BME280;62866;55.776;37.496;2023-01-31T00:58:07;97875.34;;;-1.09;88.60
54806;BME280;62866;55.776;37.496;2023-01-31T01:00:33;97874.69;;;-1.11;88.64
54806;BME280;62866;55.776;37.496;2023-01-31T01:02:58;97855.66;;;-1.22;88.41
54806;BME280;62866;55.776;37.496;2023-01-31T01:05:24;97871.25;;;-1.12;87.85
54806;BME280;62866;55.776;37.496;2023-01-31T01:07:49;97875.66;;;-1.12;87.91
54806;BME280;62866;55.776;37.496;2023-01-31T01:10:15;97873.38;;;-1.07;88.29
54806;BME280;62866;55.776;37.496;2023-01-31T01:12:40;97878.28;;;-1.04;88.30
54806;BME280;62866;55.776;37.496;2023-01-31T01:15:06;97881.56;;;-1.10;88.07
54806;BME280;62866;55.776;37.496;2023-01-31T01:17:32;97879.44;;;-1.07;88.15
54806;BME280;62866;55.776;37.496;2023-01-31T01:19:57;97877.47;;;-0.97;88.40
54806;BME280;62866;55.776;37.496;2023-01-31T01:22:30;97879.63;;;-0.92;88.13
54806;BME280;62866;55.776;37.496;2023-01-31T01:24:56;97878.00;;;-0.93;88.14
54806;BME280;62866;55.776;37.496;2023-01-31T01:27:21;97869.78;;;-0.90;87.88
54806;BME280;62866;55.776;37.496;2023-01-31T01:29:47;97869.78;;;-0.98;87.44
54806;BME280;62866;55.776;37.496;2023-01-31T01:32:12;97869.44;;;-1.03;87.46
54806;BME280;62866;55.776;37.496;2023-01-31T01:34:38;97879.28;;;-0.97;87.66
54806;BME280;62866;55.776;37.496;2023-01-31T01:37:03;97878.00;;;-0.93;87.14
54806;BME280;62866;55.776;37.496;2023-01-31T01:39:38;97882.72;;;-0.97;86.97
54806;BME280;62866;55.776;37.496;2023-01-31T01:42:04;97886.16;;;-0.96;87.58
54806;BME280;62866;55.776;37.496;2023-01-31T01:49:39;97886.03;;;-0.87;87.00
54806;BME280;62866;55.776;37.496;2023-01-31T01:52:07;97879.94;;;-0.87;87.02
54806;BME280;62866;55.776;37.496;2023-01-31T01:54:42;97875.84;;;-0.82;86.92
54806;BME280;62866;55.776;37.496;2023-01-31T01:57:10;97866.16;;;-0.97;86.89
54806;BME280;62866;55.776;37.496;2023-01-31T01:59:44;97880.59;;;-0.93;86.74
54806;BME280;62866;55.776;37.496;2023-01-31T02:02:11;97874.03;;;-0.89;86.81
54806;BME280;62866;55.776;37.496;2023-01-31T02:04:39;97881.44;;;-0.85;86.88
54806;BME280;62866;55.776;37.496;2023-01-31T02:07:07;97885.19;;;-0.87;86.96
54806;BME280;62866;55.776;37.496;2023-01-31T02:12:20;97877.34;;;-0.79;86.26
54806;BME280;62866;55.776;37.496;2023-01-31T02:14:47;97873.06;;;-0.80;86.30
54806;BME280;62866;55.776;37.496;2023-01-31T02:17:15;97868.63;;;-0.80;86.25
54806;BME280;62866;55.776;37.496;2023-01-31T02:19:55;97859.94;;;-0.80;86.39
54806;BME280;62866;55.776;37.496;2023-01-31T02:25:23;97863.91;;;-0.84;86.20
54806;BME280;62866;55.776;37.496;2023-01-31T02:30:33;97867.31;;;-0.84;86.28
54806;BME280;62866;55.776;37.496;2023-01-31T02:33:09;97859.13;;;-0.89;86.03
54806;BME280;62866;55.776;37.496;2023-01-31T02:35:54;97867.16;;;-0.82;86.01
54806;BME280;62866;55.776;37.496;2023-01-31T02:41:44;97860.94;;;-0.81;85.62
54806;BME280;62866;55.776;37.496;2023-01-31T02:44:27;97867.16;;;-0.82;85.67
54806;BME280;62866;55.776;37.496;2023-01-31T02:47:25;97873.56;;;-0.85;85.55
54806;BME280;62866;55.776;37.496;2023-01-31T02:50:02;97871.56;;;-0.83;85.86
54806;BME280;62866;55.776;37.496;2023-01-31T02:52:42;97873.88;;;-0.71;86.29
54806;BME280;62866;55.776;37.496;2023-01-31T02:57:59;97879.28;;;-0.73;85.58
54806;BME280;62866;55.776;37.496;2023-01-31T03:00:26;97854.69;;;-0.88;85.34
54806;BME280;62866;55.776;37.496;2023-01-31T03:02:53;97877.66;;;-0.74;85.24
54806;BME280;62866;55.776;37.496;2023-01-31T03:05:20;97869.47;;;-0.79;85.04
54806;BME280;62866;55.776;37.496;2023-01-31T03:07:51;97877.00;;;-0.76;85.08
54806;BME280;62866;55.776;37.496;2023-01-31T03:10:29;97876.81;;;-0.74;85.06
54806;BME280;62866;55.776;37.496;2023-01-31T03:19:19;97887.50;;;-0.68;84.99
54806;BME280;62866;55.776;37.496;2023-01-31T03:22:04;97881.75;;;-0.71;84.85
54806;BME280;62866;55.776;37.496;2023-01-31T03:24:32;97887.97;;;-0.72;84.76
54806;BME280;62866;55.776;37.496;2023-01-31T03:27:00;97878.16;;;-0.70;84.26
54806;BME280;62866;55.776;37.496;2023-01-31T03:29:32;97887.00;;;-0.80;84.52
54806;BME280;62866;55.776;37.496;2023-01-31T03:32:26;97892.25;;;-0.88;84.94
54806;BME280;62866;55.776;37.496;2023-01-31T03:34:52;97901.25;;;-0.82;84.50
54806;BME280;62866;55.776;37.496;2023-01-31T03:37:25;97903.72;;;-0.72;84.23
54806;BME280;62866;55.776;37.496;2023-01-31T03:40:03;97902.75;;;-0.71;84.36
54806;BME280;62866;55.776;37.496;2023-01-31T03:45:27;97900.78;;;-0.78;84.29
54806;BME280;62866;55.776;37.496;2023-01-31T03:47:56;97902.75;;;-0.71;84.56
54806;BME280;62866;55.776;37.496;2023-01-31T03:50:27;97898.63;;;-0.82;84.51
54806;BME280;62866;55.776;37.496;2023-01-31T03:56:43;97900.28;;;-0.81;84.61
54806;BME280;62866;55.776;37.496;2023-01-31T03:58:46;97894.38;;;-0.83;84.70
54806;BME280;62866;55.776;37.496;2023-01-31T04:01:16;97909.94;;;-0.82;84.56
54806;BME280;62866;55.776;37.496;2023-01-31T04:03:56;97912.94;;;-0.77;84.70
54806;BME280;62866;55.776;37.496;2023-01-31T04:06:23;97916.84;;;-0.81;84.69
54806;BME280;62866;55.776;37.496;2023-01-31T04:08:49;97907.00;;;-0.79;85.00
54806;BME280;62866;55.776;37.496;2023-01-31T04:11:14;97908.66;;;-0.78;84.73
54806;BME280;62866;55.776;37.496;2023-01-31T04:13:40;97914.72;;;-0.69;84.79
54806;BME280;62866;55.776;37.496;2023-01-31T04:16:06;97916.03;;;-0.73;84.52
54806;BME280;62866;55.776;37.496;2023-01-31T04:18:32;97904.53;;;-0.80;84.60
54806;BME280;62866;55.776;37.496;2023-01-31T04:20:58;97928.66;;;-0.77;84.71
54806;BME280;62866;55.776;37.496;2023-01-31T04:23:23;97916.19;;;-0.74;84.99
54806;BME280;62866;55.776;37.496;2023-01-31T04:25:52;97921.94;;;-0.71;84.77
54806;BME280;62866;55.776;37.496;2023-01-31T04:28:19;97911.59;;;-0.72;84.49
54806;BME280;62866;55.776;37.496;2023-01-31T04:30:45;97916.69;;;-0.71;84.36
54806;BME280;62866;55.776;37.496;2023-01-31T04:33:10;97921.44;;;-0.66;84.63
54806;BME280;62866;55.776;37.496;2023-01-31T04:35:39;97910.63;;;-0.71;84.26
54806;BME280;62866;55.776;37.496;2023-01-31T04:38:04;97925.88;;;-0.67;84.34
54806;BME280;62866;55.776;37.496;2023-01-31T04:40:30;97915.53;;;-0.85;84.41
54806;BME280;62866;55.776;37.496;2023-01-31T04:42:55;97940.31;;;-0.71;84.56
54806;BME280;62866;55.776;37.496;2023-01-31T04:45:21;97940.16;;;-0.69;84.70
54806;BME280;62866;55.776;37.496;2023-01-31T04:47:47;97954.09;;;-0.61;84.05
54806;BME280;62866;55.776;37.496;2023-01-31T04:50:12;97957.53;;;-0.68;84.61
54806;BME280;62866;55.776;37.496;2023-01-31T04:52:38;97953.44;;;-0.71;84.43
54806;BME280;62866;55.776;37.496;2023-01-31T04:55:03;97943.91;;;-0.72;84.31
54806;BME280;62866;55.776;37.496;2023-01-31T04:57:29;97951.31;;;-0.67;84.63
54806;BME280;62866;55.776;37.496;2023-01-31T04:59:55;97944.91;;;-0.65;84.54
54806;BME280;62866;55.776;37.496;2023-01-31T05:02:20;97939.31;;;-0.70;84.47
54806;BME280;62866;55.776;37.496;2023-01-31T05:04:47;97940.47;;;-0.72;84.81
54806;BME280;62866;55.776;37.496;2023-01-31T05:07:13;97947.03;;;-0.68;84.89
54806;BME280;62866;55.776;37.496;2023-01-31T05:09:38;97944.41;;;-0.68;85.23
54806;BME280;62866;55.776;37.496;2023-01-31T05:12:07;97950.50;;;-0.60;84.67
54806;BME280;62866;55.776;37.496;2023-01-31T05:14:33;97955.75;;;-0.52;84.79
54806;BME280;62866;55.776;37.496;2023-01-31T05:16:58;97941.97;;;-0.62;84.87
54806;BME280;62866;55.776;37.496;2023-01-31T05:19:24;97954.41;;;-0.56;84.87
54806;BME280;62866;55.776;37.496;2023-01-31T05:21:49;97968.22;;;-0.54;84.83
54806;BME280;62866;55.776;37.496;2023-01-31T05:24:26;97976.09;;;-0.54;84.93
54806;BME280;62866;55.776;37.496;2023-01-31T05:26:53;97975.78;;;-0.51;84.88
54806;BME280;62866;55.776;37.496;2023-01-31T05:29:24;97967.38;;;-0.62;84.77
54806;BME280;62866;55.776;37.496;2023-01-31T05:31:51;97965.88;;;-0.65;85.39
54806;BME280;62866;55.776;37.496;2023-01-31T05:34:17;97977.22;;;-0.56;84.81
54806;BME280;62866;55.776;37.496;2023-01-31T05:36:43;97970.00;;;-0.54;85.02
54806;BME280;62866;55.776;37.496;2023-01-31T05:39:08;97972.31;;;-0.59;84.73
54806;BME280;62866;55.776;37.496;2023-01-31T05:41:34;97970.31;;;-0.57;85.24
54806;BME280;62866;55.776;37.496;2023-01-31T05:44:00;97954.25;;;-0.62;85.26
54806;BME280;62866;55.776;37.496;2023-01-31T05:46:25;97973.16;;;-0.51;85.38
54806;BME280;62866;55.776;37.496;2023-01-31T05:48:51;97957.22;;;-0.49;85.30
54806;BME280;62866;55.776;37.496;2023-01-31T05:51:16;97970.16;;;-0.48;85.28
54806;BME280;62866;55.776;37.496;2023-01-31T05:53:42;97970.16;;;-0.56;85.27
54806;BME280;62866;55.776;37.496;2023-01-31T05:56:07;97983.66;;;-0.51;85.13
54806;BME280;62866;55.776;37.496;2023-01-31T05:58:33;97972.63;;;-0.54;85.46
54806;BME280;62866;55.776;37.496;2023-01-31T06:00:59;97960.34;;;-0.54;85.04
54806;BME280;62866;55.776;37.496;2023-01-31T06:03:24;97968.53;;;-0.49;84.95
54806;BME280;62866;55.776;37.496;2023-01-31T06:05:50;97985.25;;;-0.42;84.83
54806;BME280;62866;55.776;37.496;2023-01-31T06:08:15;97965.75;;;-0.47;85.03
54806;BME280;62866;55.776;37.496;2023-01-31T06:10:42;97982.97;;;-0.53;84.86
54806;BME280;62866;55.776;37.496;2023-01-31T06:13:07;98000.03;;;-0.49;85.20
54806;BME280;62866;55.776;37.496;2023-01-31T06:15:33;97990.03;;;-0.45;85.16
54806;BME280;62866;55.776;37.496;2023-01-31T06:17:58;97982.00;;;-0.44;85.25
54806;BME280;62866;55.776;37.496;2023-01-31T06:20:25;97990.88;;;-0.45;85.43
54806;BME280;62866;55.776;37.496;2023-01-31T06:22:50;98005.28;;;-0.32;85.07
54806;BME280;62866;55.776;37.496;2023-01-31T06:25:16;98006.47;;;-0.27;85.46
54806;BME280;62866;55.776;37.496;2023-01-31T06:27:42;98005.97;;;-0.22;84.97
54806;BME280;62866;55.776;37.496;2023-01-31T06:30:08;98013.38;;;-0.18;84.67
54806;BME280;62866;55.776;37.496;2023-01-31T06:32:35;98000.22;;;-0.26;84.70
54806;BME280;62866;55.776;37.496;2023-01-31T06:35:02;98004.16;;;-0.22;84.51
54806;BME280;62866;55.776;37.496;2023-01-31T06:37:27;98011.56;;;-0.17;84.36
54806;BME280;62866;55.776;37.496;2023-01-31T06:39:53;98015.63;;;-0.15;84.44
54806;BME280;62866;55.776;37.496;2023-01-31T06:42:18;98011.72;;;-0.27;84.06
54806;BME280;62866;55.776;37.496;2023-01-31T06:44:44;98023.19;;;-0.20;84.46
54806;BME280;62866;55.776;37.496;2023-01-31T06:47:10;98030.41;;;-0.22;84.63
54806;BME280;62866;55.776;37.496;2023-01-31T06:49:37;98038.28;;;-0.30;84.30
54806;BME280;62866;55.776;37.496;2023-01-31T06:52:03;98025.97;;;-0.38;84.53
54806;BME280;62866;55.776;37.496;2023-01-31T06:54:28;98037.16;;;-0.27;84.47
54806;BME280;62866;55.776;37.496;2023-01-31T06:56:54;98033.53;;;-0.26;84.37
54806;BME280;62866;55.776;37.496;2023-01-31T06:59:19;98033.56;;;-0.18;84.47
54806;BME280;62866;55.776;37.496;2023-01-31T07:01:45;98030.72;;;-0.25;84.30
54806;BME280;62866;55.776;37.496;2023-01-31T07:04:11;98036.34;;;-0.20;84.30
54806;BME280;62866;55.776;37.496;2023-01-31T07:06:36;98038.81;;;-0.18;83.75
54806;BME280;62866;55.776;37.496;2023-01-31T07:09:02;98038.28;;;-0.22;83.94
54806;BME280;62866;55.776;37.496;2023-01-31T07:11:28;98042.41;;;-0.19;84.11
54806;BME280;62866;55.776;37.496;2023-01-31T07:13:53;98052.25;;;-0.13;84.25
54806;BME280;62866;55.776;37.496;2023-01-31T07:16:19;98053.25;;;-0.06;83.84
54806;BME280;62866;55.776;37.496;2023-01-31T07:18:46;98050.78;;;-0.08;83.71
54806;BME280;62866;55.776;37.496;2023-01-31T07:21:12;98060.44;;;-0.08;83.98
54806;BME280;62866;55.776;37.496;2023-01-31T07:23:38;98047.50;;;-0.18;83.77
54806;BME280;62866;55.776;37.496;2023-01-31T07:26:04;98057.19;;;-0.18;84.13
54806;BME280;62866;55.776;37.496;2023-01-31T07:28:30;98059.81;;;-0.10;84.32
54806;BME280;62866;55.776;37.496;2023-01-31T07:30:55;98043.91;;;-0.09;83.94
54806;BME280;62866;55.776;37.496;2023-01-31T07:33:21;98066.72;;;-0.01;83.70
54806;BME280;62866;55.776;37.496;2023-01-31T07:35:46;98068.19;;;-0.07;83.43
54806;BME280;62866;55.776;37.496;2023-01-31T07:38:12;98051.28;;;-0.12;83.48
54806;BME280;62866;55.776;37.496;2023-01-31T07:40:37;98065.56;;;-0.07;83.65
54806;BME280;62866;55.776;37.496;2023-01-31T07:43:04;98074.41;;;0.00;83.51
54806;BME280;62866;55.776;37.496;2023-01-31T07:45:29;98076.88;;;0.02;83.62
54806;BME280;62866;55.776;37.496;2023-01-31T07:47:58;98078.69;;;0.10;83.78
54806;BME280;62866;55.776;37.496;2023-01-31T07:50:24;98082.50;;;0.07;83.26
54806;BME280;62866;55.776;37.496;2023-01-31T07:52:51;98089.03;;;-0.05;83.24
54806;BME280;62866;55.776;37.496;2023-01-31T07:55:17;98082.13;;;-0.06;83.65
54806;BME280;62866;55.776;37.496;2023-01-31T07:57:42;98074.91;;;0.04;83.66
54806;BME280;62866;55.776;37.496;2023-01-31T08:00:08;98079.50;;;0.02;83.57
54806;BME280;62866;55.776;37.496;2023-01-31T08:02:54;98091.19;;;0.08;83.82
54806;BME280;62866;55.776;37.496;2023-01-31T08:05:38;98091.66;;;0.11;83.88
54806;BME280;62866;55.776;37.496;2023-01-31T08:08:03;98092.19;;;0.15;83.67
54806;BME280;62866;55.776;37.496;2023-01-31T08:10:35;98094.44;;;0.26;83.68
54806;BME280;62866;55.776;37.496;2023-01-31T08:13:01;98089.88;;;0.20;83.23
54806;BME280;62866;55.776;37.496;2023-01-31T08:15:26;98091.66;;;0.19;83.15
54806;BME280;62866;55.776;37.496;2023-01-31T08:17:52;98096.59;;;0.22;83.18
54806;BME280;62866;55.776;37.496;2023-01-31T08:20:17;98110.41;;;0.32;82.97
54806;BME280;62866;55.776;37.496;2023-01-31T08:22:43;98119.59;;;0.28;82.99
54806;BME280;62866;55.776;37.496;2023-01-31T08:25:09;98108.41;;;0.34;83.12
54806;BME280;62866;55.776;37.496;2023-01-31T08:27:35;98121.25;;;0.46;82.65
54806;BME280;62866;55.776;37.496;2023-01-31T08:30:01;98112.06;;;0.33;82.50
54806;BME280;62866;55.776;37.496;2023-01-31T08:32:26;98123.56;;;0.41;82.95
54806;BME280;62866;55.776;37.496;2023-01-31T08:34:52;98123.38;;;0.42;82.48
54806;BME280;62866;55.776;37.496;2023-01-31T08:37:18;98113.50;;;0.36;82.43
54806;BME280;62866;55.776;37.496;2023-01-31T08:39:43;98122.06;;;0.38;82.71
54806;BME280;62866;55.776;37.496;2023-01-31T08:42:09;98108.41;;;0.34;82.52
54806;BME280;62866;55.776;37.496;2023-01-31T08:44:34;98106.97;;;0.32;82.87
54806;BME280;62866;55.776;37.496;2023-01-31T08:47:02;98122.06;;;0.38;82.85
54806;BME280;62866;55.776;37.496;2023-01-31T08:49:28;98123.84;;;0.54;82.65
54806;BME280;62866;55.776;37.496;2023-01-31T08:51:53;98129.44;;;0.59;82.33
54806;BME280;62866;55.776;37.496;2023-01-31T08:54:19;98126.31;;;0.63;81.84
54806;BME280;62866;55.776;37.496;2023-01-31T08:56:44;98114.97;;;0.71;82.47
54806;BME280;62866;55.776;37.496;2023-01-31T08:59:10;98126.63;;;0.76;82.51
54806;BME280;62866;55.776;37.496;2023-01-31T09:01:36;98115.13;;;0.69;82.65
54806;BME280;62866;55.776;37.496;2023-01-31T09:04:02;98120.38;;;0.69;82.75
54806;BME280;62866;55.776;37.496;2023-01-31T09:06:27;98112.00;;;0.74;82.34
54806;BME280;62866;55.776;37.496;2023-01-31T09:08:57;98113.47;;;0.76;82.44
54806;BME280;62866;55.776;37.496;2023-01-31T09:11:23;98109.69;;;0.79;81.85
54806;BME280;62866;55.776;37.496;2023-01-31T09:13:50;98123.97;;;0.76;82.13
54806;BME280;62866;55.776;37.496;2023-01-31T09:16:17;98109.69;;;0.79;81.40
54806;BME280;62866;55.776;37.496;2023-01-31T09:18:42;98093.41;;;0.67;81.37
54806;BME280;62866;55.776;37.496;2023-01-31T09:21:15;98114.13;;;0.79;81.53
54806;BME280;62866;55.776;37.496;2023-01-31T09:23:41;98111.81;;;0.75;81.82
54806;BME280;62866;55.776;37.496;2023-01-31T09:26:07;98099.81;;;0.81;81.82
54806;BME280;62866;55.776;37.496;2023-01-31T09:28:33;98105.22;;;0.88;81.42
54806;BME280;62866;55.776;37.496;2023-01-31T09:31:07;98108.03;;;0.86;81.46
54806;BME280;62866;55.776;37.496;2023-01-31T09:33:33;98105.75;;;0.83;81.13
54806;BME280;62866;55.776;37.496;2023-01-31T09:36:02;98103.59;;;0.79;81.10
54806;BME280;62866;55.776;37.496;2023-01-31T09:38:29;98111.00;;;0.83;81.09
54806;BME280;62866;55.776;37.496;2023-01-31T09:40:55;98108.84;;;0.87;81.34
54806;BME280;62866;55.776;37.496;2023-01-31T09:43:24;98116.25;;;0.91;81.60
54806;BME280;62866;55.776;37.496;2023-01-31T09:45:52;98123.75;;;1.02;81.72
54806;BME280;62866;55.776;37.496;2023-01-31T09:48:24;98124.41;;;1.04;81.94
54806;BME280;62866;55.776;37.496;2023-01-31T09:50:53;98118.66;;;1.01;81.69
54806;BME280;62866;55.776;37.496;2023-01-31T09:53:22;98113.06;;;1.04;81.55
54806;BME280;62866;55.776;37.496;2023-01-31T10:01:46;98121.25;;;1.25;81.77
54806;BME280;62866;55.776;37.496;2023-01-31T10:07:04;98111.88;;;1.23;80.53
54806;BME280;62866;55.776;37.496;2023-01-31T10:09:45;98100.75;;;1.04;80.96
54806;BME280;62866;55.776;37.496;2023-01-31T10:12:18;98121.78;;;1.04;81.10
54806;BME280;62866;55.776;37.496;2023-01-31T10:14:52;98121.00;;;0.96;81.41
54806;BME280;62866;55.776;37.496;2023-01-31T10:17:28;98126.56;;;0.93;80.98
54806;BME280;62866;55.776;37.496;2023-01-31T10:20:02;98125.09;;;0.98;81.43
54806;BME280;62866;55.776;37.496;2023-01-31T10:22:38;98139.53;;;1.10;80.80
54806;BME280;62866;55.776;37.496;2023-01-31T10:25:18;98140.66;;;1.24;80.68
54806;BME280;62866;55.776;37.496;2023-01-31T10:30:27;98144.81;;;1.02;81.07
54806;BME280;62866;55.776;37.496;2023-01-31T10:35:57;98157.31;;;1.17;80.77
54806;BME280;62866;55.776;37.496;2023-01-31T10:38:26;98154.84;;;1.15;80.66
54806;BME280;62866;55.776;37.496;2023-01-31T10:41:56;98154.84;;;1.15;80.68
54806;BME280;62866;55.776;37.496;2023-01-31T10:44:19;98139.91;;;0.99;80.79
54806;BME280;62866;55.776;37.496;2023-01-31T10:46:47;98138.72;;;1.02;80.87
54806;BME280;62866;55.776;37.496;2023-01-31T10:49:12;98129.53;;;0.98;81.02
54806;BME280;62866;55.776;37.496;2023-01-31T10:52:06;98156.28;;;1.18;80.03
54806;BME280;62866;55.776;37.496;2023-01-31T10:57:23;98162.00;;;1.37;80.32
54806;BME280;62866;55.776;37.496;2023-01-31T10:59:49;98162.53;;;1.25;79.95
54806;BME280;62866;55.776;37.496;2023-01-31T11:02:23;98150.53;;;1.22;80.15
54806;BME280;62866;55.776;37.496;2023-01-31T11:04:50;98158.75;;;1.19;80.18
54806;BME280;62866;55.776;37.496;2023-01-31T11:07:17;98157.47;;;1.07;80.81
54806;BME280;62866;55.776;37.496;2023-01-31T11:09:47;98160.56;;;1.19;80.69
54806;BME280;62866;55.776;37.496;2023-01-31T11:12:13;98162.56;;;1.17;80.19
54806;BME280;62866;55.776;37.496;2023-01-31T11:14:39;98156.44;;;1.24;80.50
54806;BME280;62866;55.776;37.496;2023-01-31T11:17:11;98148.56;;;1.24;80.51
54806;BME280;62866;55.776;37.496;2023-01-31T11:19:46;98154.94;;;1.30;80.28
54806;BME280;62866;55.776;37.496;2023-01-31T11:22:32;98162.47;;;1.41;80.29
54806;BME280;62866;55.776;37.496;2023-01-31T11:25:01;98147.47;;;1.49;79.93
54806;BME280;62866;55.776;37.496;2023-01-31T11:27:39;98150.44;;;1.46;79.69
54806;BME280;62866;55.776;37.496;2023-01-31T11:30:16;98148.97;;;1.44;80.07
54806;BME280;62866;55.776;37.496;2023-01-31T11:32:44;98128.72;;;1.44;79.80
54806;BME280;62866;55.776;37.496;2023-01-31T11:37:49;98147.31;;;1.43;79.28
54806;BME280;62866;55.776;37.496;2023-01-31T11:43:19;98148.47;;;1.48;78.89
54806;BME280;62866;55.776;37.496;2023-01-31T11:45:44;98135.00;;;1.35;78.94
54806;BME280;62866;55.776;37.496;2023-01-31T11:51:00;98153.09;;;1.38;78.94
54806;BME280;62866;55.776;37.496;2023-01-31T11:56:18;98146.38;;;1.28;79.38
54806;BME280;62866;55.776;37.496;2023-01-31T11:58:51;98147.53;;;1.33;79.79
54806;BME280;62866;55.776;37.496;2023-01-31T12:01:20;98161.66;;;1.40;79.15
54806;BME280;62866;55.776;37.496;2023-01-31T12:03:56;98163.13;;;1.43;79.27
54806;BME280;62866;55.776;37.496;2023-01-31T12:06:31;98168.75;;;1.40;78.88
54806;BME280;62866;55.776;37.496;2023-01-31T12:08:58;98168.75;;;1.32;78.19
54806;BME280;62866;55.776;37.496;2023-01-31T12:11:29;98165.34;;;1.23;78.52
54806;BME280;62866;55.776;37.496;2023-01-31T12:14:12;98168.47;;;1.19;78.61
54806;BME280;62866;55.776;37.496;2023-01-31T12:16:38;98170.47;;;1.17;78.99
54806;BME280;62866;55.776;37.496;2023-01-31T12:21:43;98162.88;;;1.13;79.11
54806;BME280;62866;55.776;37.496;2023-01-31T12:55:29;98176.66;;;1.32;79.65
54806;BME280;62866;55.776;37.496;2023-01-31T13:06:07;98186.03;;;1.26;78.74
54806;BME280;62866;55.776;37.496;2023-01-31T13:08:42;98188.69;;;1.26;78.87
54806;BME280;62866;55.776;37.496;2023-01-31T13:11:25;98170.59;;;1.23;78.78
54806;BME280;62866;55.776;37.496;2023-01-31T13:13:57;98177.69;;;1.14;78.89
54806;BME280;62866;55.776;37.496;2023-01-31T13:16:29;98173.13;;;1.08;79.36
54806;BME280;62866;55.776;37.496;2023-01-31T13:19:01;98180.19;;;1.08;79.50
54806;BME280;62866;55.776;37.496;2023-01-31T13:21:36;98176.72;;;1.07;79.29
54806;BME280;62866;55.776;37.496;2023-01-31T13:24:11;98182.63;;;1.09;79.33
54806;BME280;62866;55.776;37.496;2023-01-31T13:26:46;98194.34;;;1.07;79.58
54806;BME280;62866;55.776;37.496;2023-01-31T13:29:23;98198.63;;;1.00;79.66
54806;BME280;62866;55.776;37.496;2023-01-31T13:32:11;98215.03;;;1.02;79.68
54806;BME280;62866;55.776;37.496;2023-01-31T13:34:51;98224.28;;;0.98;79.56
54806;BME280;62866;55.776;37.496;2023-01-31T13:37:20;98223.44;;;0.97;79.94
54806;BME280;62866;55.776;37.496;2023-01-31T13:40:43;98231.66;;;0.94;80.03
54806;BME280;62866;55.776;37.496;2023-01-31T13:42:41;98234.97;;;0.96;80.19
54806;BME280;62866;55.776;37.496;2023-01-31T13:45:07;98240.75;;;0.92;80.38
54806;BME280;62866;55.776;37.496;2023-01-31T13:47:48;98246.78;;;0.84;80.48
54806;BME280;62866;55.776;37.496;2023-01-31T13:53:01;98247.31;;;0.80;80.68
54806;BME280;62866;55.776;37.496;2023-01-31T13:55:36;98239.91;;;0.75;80.62
54806;BME280;62866;55.776;37.496;2023-01-31T13:58:29;98241.72;;;0.83;80.68
54806;BME280;62866;55.776;37.496;2023-01-31T14:00:58;98242.53;;;0.83;80.46
54806;BME280;62866;55.776;37.496;2023-01-31T14:03:26;98252.25;;;0.83;80.55
54806;BME280;62866;55.776;37.496;2023-01-31T14:05:58;98247.47;;;0.78;80.80
54806;BME280;62866;55.776;37.496;2023-01-31T14:13:44;98235.97;;;0.71;81.06
54806;BME280;62866;55.776;37.496;2023-01-31T14:16:33;98253.06;;;0.75;81.30
54806;BME280;62866;55.776;37.496;2023-01-31T14:19:00;98246.78;;;0.76;80.96
54806;BME280;62866;55.776;37.496;2023-01-31T14:23:55;98247.97;;;0.73;81.31
54806;BME280;62866;55.776;37.496;2023-01-31T14:29:19;98253.53;;;0.79;81.36
54806;BME280;62866;55.776;37.496;2023-01-31T14:31:47;98264.56;;;0.82;81.60
54806;BME280;62866;55.776;37.496;2023-01-31T14:34:36;98256.34;;;0.85;81.36
54806;BME280;62866;55.776;37.496;2023-01-31T14:40:12;98264.06;;;0.95;80.94
54806;BME280;62866;55.776;37.496;2023-01-31T14:43:11;98260.28;;;0.89;80.59
54806;BME280;62866;55.776;37.496;2023-01-31T14:57:09;98272.13;;;1.01;80.52
54806;BME280;62866;55.776;37.496;2023-01-31T15:07:58;98272.31;;;0.92;81.11
54806;BME280;62866;55.776;37.496;2023-01-31T15:13:46;98275.75;;;1.00;80.95
54806;BME280;62866;55.776;37.496;2023-01-31T15:18:47;98261.78;;;0.84;80.89
54806;BME280;62866;55.776;37.496;2023-01-31T15:21:27;98274.94;;;0.92;81.38
54806;BME280;62866;55.776;37.496;2023-01-31T15:23:55;98280.53;;;0.97;81.60
54806;BME280;62866;55.776;37.496;2023-01-31T15:26:22;98290.38;;;1.03;81.55
54806;BME280;62866;55.776;37.496;2023-01-31T15:28:51;98281.03;;;1.08;81.22
54806;BME280;62866;55.776;37.496;2023-01-31T15:31:22;98291.56;;;1.08;81.08